Time;durP1;ratioP1;P1;durP2;ratioP2;P2;SDS_P1;SDS_P2;PMS_P1;PMS_P2;Temp;Humidity;BMP_temperature;BMP_pressure;BME280_temperature;BME280_humidity;BME280_pressure;Samples;Min_cycle;Max_cycle;Signal;HPM_P1;HPM_P2
2022/01/27 00:03:48;;;;;;;19.53;11.67;;;;;;;0.77;85.09;99410.20;2242578;78;21032;-83
2022/01/27 00:06:41;;;;;;;15.10;10.87;;;;;;;0.70;85.46;99409.34;2290283;77;21364;-83
2022/01/27 00:12:44;;;;;;;15.10;11.13;;;;;;;0.58;85.36;99402.69;2268752;78;20996;-82
2022/01/27 00:15:46;;;;;;;16.10;10.93;;;;;;;0.52;85.63;99397.18;2291205;78;20971;-82
2022/01/27 00:18:46;;;;;;;17.87;11.03;;;;;;;0.51;86.00;99388.98;2291284;78;21063;-82
2022/01/27 00:21:47;;;;;;;17.10;10.47;;;;;;;0.51;85.87;99374.86;2290703;78;20925;-82
2022/01/27 00:24:48;;;;;;;16.30;11.23;;;;;;;0.52;85.89;99377.03;2291185;78;20924;-83
2022/01/27 00:27:48;;;;;;;15.97;10.57;;;;;;;0.55;85.82;99377.21;2290423;78;20928;-82
2022/01/27 00:30:50;;;;;;;15.13;9.60;;;;;;;0.58;85.61;99375.71;2290288;77;21092;-81
2022/01/27 00:33:51;;;;;;;;;;;;;;;;;;;;;
2022/01/27 00:36:51;;;;;;;16.70;11.23;;;;;;;0.58;85.33;99376.99;2284433;77;21380;-82
2022/01/27 00:39:52;;;;;;;15.03;10.40;;;;;;;0.60;85.21;99374.12;2281894;78;21285;-82
2022/01/27 00:42:53;;;;;;;14.40;9.53;;;;;;;0.60;85.24;99378.37;2281677;78;21310;-82
2022/01/27 00:45:53;;;;;;;13.57;9.77;;;;;;;0.59;84.89;99380.45;2281564;78;20902;-82
2022/01/27 00:48:54;;;;;;;16.83;10.23;;;;;;;0.58;85.29;99370.97;2281801;77;20934;-82
2022/01/27 00:51:55;;;;;;;16.93;9.90;;;;;;;0.58;85.15;99368.00;2281890;78;20906;-81
2022/01/27 00:54:56;;;;;;;11.57;9.20;;;;;;;0.59;85.21;99367.20;2280789;78;21472;-81
2022/01/27 00:58:55;;;;;;;15.70;9.87;;;;;;;0.64;85.30;99370.94;2280953;78;20994;-82
2022/01/27 01:01:07;;;;;;;16.07;10.13;;;;;;;0.69;85.03;99367.35;2278633;78;21026;-82
2022/01/27 01:04:07;;;;;;;13.80;9.43;;;;;;;0.70;84.94;99364.38;2281178;78;21011;-82
2022/01/27 01:07:08;;;;;;;13.23;9.17;;;;;;;0.72;84.96;99364.08;2281515;78;21021;-82
2022/01/27 01:20:22;;;;;;;13.43;8.63;;;;;;;0.68;84.97;99345.02;2260960;78;20961;-82
2022/01/27 01:30:08;;;;;;;13.63;9.10;;;;;;;0.71;85.80;99344.31;2281559;77;20967;-82
2022/01/27 01:32:53;;;;;;;14.00;9.27;;;;;;;0.73;85.22;99346.58;2285150;78;21004;-82
2022/01/27 01:36:01;;;;;;;13.60;9.20;;;;;;;0.72;85.32;99344.80;2291002;77;20984;-82
2022/01/27 01:38:53;;;;;;;14.33;9.73;;;;;;;0.70;85.27;99349.85;2289791;77;21070;-82
2022/01/27 01:41:53;;;;;;;14.00;9.13;;;;;;;0.67;85.39;99344.93;2291336;78;21303;-82
2022/01/27 01:44:54;;;;;;;15.17;9.50;;;;;;;0.69;85.59;99349.77;2291406;78;20928;-82
2022/01/27 01:47:55;;;;;;;18.23;10.40;;;;;;;0.70;85.64;99347.68;2291393;78;20928;-82
2022/01/27 01:50:57;;;;;;;14.93;9.93;;;;;;;0.68;85.61;99346.30;2291350;78;20936;-82
2022/01/27 01:53:58;;;;;;;14.50;9.07;;;;;;;0.68;85.65;99336.43;2291408;78;20947;-83
2022/01/27 01:56:59;;;;;;;12.93;9.43;;;;;;;0.66;85.85;99327.74;2295769;77;20989;-82
2022/01/27 01:59:59;;;;;;;12.83;10.07;;;;;;;0.68;86.09;99327.03;2296130;77;20952;-82
2022/01/27 02:03:00;;;;;;;14.43;10.00;;;;;;;0.70;86.28;99324.55;2291015;78;20928;-82
2022/01/27 02:06:00;;;;;;;18.20;10.90;;;;;;;0.68;86.21;99326.16;2289690;78;20943;-81
2022/01/27 02:18:27;;;;;;;16.50;10.90;;;;;;;0.67;86.87;99325.66;2287808;77;20984;-84
2022/01/27 02:21:32;;;;;;;19.77;12.17;;;;;;;0.63;86.89;99324.20;2268186;78;20963;-84
2022/01/27 02:24:32;;;;;;;15.70;10.87;;;;;;;0.61;86.99;99323.22;2291475;78;20990;-84
2022/01/27 02:27:34;;;;;;;16.43;10.97;;;;;;;0.63;87.11;99324.59;2291224;78;20999;-83
2022/01/27 02:30:36;;;;;;;18.27;10.77;;;;;;;0.65;87.12;99317.87;2242084;78;20991;-83
2022/01/27 02:33:37;;;;;;;18.93;11.70;;;;;;;0.67;87.29;99314.10;2282359;78;20958;-83
2022/01/27 02:36:37;;;;;;;17.87;10.53;;;;;;;0.68;87.33;99318.05;2280314;78;20957;-84
2022/01/27 02:39:38;;;;;;;20.30;12.03;;;;;;;0.68;87.15;99313.30;2280596;78;20974;-84
2022/01/27 02:42:38;;;;;;;19.30;12.70;;;;;;;0.69;87.13;99315.96;2280851;78;20930;-83
2022/01/27 02:45:39;;;;;;;21.33;12.40;;;;;;;0.75;87.03;99309.00;2281562;78;21305;-83
2022/01/27 02:48:39;;;;;;;15.77;11.07;;;;;;;0.77;86.90;99315.12;2281470;78;21396;-83
2022/01/27 02:51:40;;;;;;;15.57;11.13;;;;;;;0.79;86.83;99310.55;2281736;78;20910;-83
2022/01/27 02:54:40;;;;;;;15.33;11.13;;;;;;;0.79;86.71;99314.80;2281631;78;20918;-83
2022/01/27 02:57:41;;;;;;;18.57;12.47;;;;;;;0.83;86.59;99306.47;2281311;78;21013;-84
2022/01/27 03:00:41;;;;;;;19.07;11.80;;;;;;;0.81;86.69;99303.81;2281614;78;20922;-82
2022/01/27 03:03:42;;;;;;;15.93;11.23;;;;;;;0.81;86.75;99302.93;2281770;78;20977;-83
2022/01/27 03:06:42;;;;;;;16.07;10.07;;;;;;;0.83;86.79;99300.94;2281525;78;21041;-82
2022/01/27 03:12:46;;;;;;;14.50;11.43;;;;;;;0.87;86.77;99287.89;2261185;78;20961;-84
2022/01/27 03:15:47;;;;;;;21.40;13.07;;;;;;;0.88;86.88;99281.55;2281592;78;20922;-82
2022/01/27 03:18:47;;;;;;;16.60;10.87;;;;;;;0.89;86.77;99282.44;2281698;78;20942;-84
2022/01/27 03:21:48;;;;;;;16.37;11.63;;;;;;;0.90;86.62;99273.93;2281760;78;20922;-82
2022/01/27 03:24:49;;;;;;;17.63;12.43;;;;;;;0.86;86.89;99270.27;2281624;78;21266;-82
2022/01/27 03:27:49;;;;;;;21.27;13.73;;;;;;;0.84;87.00;99265.84;2281466;78;20956;-83
2022/01/27 03:30:50;;;;;;;25.03;14.07;;;;;;;0.82;86.93;99271.30;2281390;78;20906;-83
2022/01/27 03:33:50;;;;;;;22.30;15.00;;;;;;;0.81;87.03;99266.55;2281518;78;20958;-83
2022/01/27 03:36:51;;;;;;;23.80;15.17;;;;;;;0.82;86.97;99276.03;2281436;78;20918;-83
2022/01/27 03:39:51;;;;;;;22.37;13.90;;;;;;;0.82;86.92;99276.03;2281682;78;20919;-83
2022/01/27 03:43:03;;;;;;;21.60;14.47;;;;;;;0.84;86.96;99277.41;2281438;78;20947;-83
2022/01/27 03:45:54;;;;;;;21.67;14.97;;;;;;;0.85;87.02;99266.33;2279609;77;21000;-82
2022/01/27 03:48:55;;;;;;;20.40;14.57;;;;;;;0.85;87.00;99267.22;2281725;78;21309;-85
2022/01/27 03:51:59;;;;;;;18.87;12.13;;;;;;;0.88;86.90;99271.27;2281458;78;20926;-83
2022/01/27 03:54:58;;;;;;;21.97;13.73;;;;;;;0.88;86.85;99262.68;2281281;78;21361;-85
2022/01/27 03:57:59;;;;;;;24.60;13.20;;;;;;;0.83;86.76;99261.10;2280732;78;20993;-84
2022/01/27 04:00:59;;;;;;;23.83;14.20;;;;;;;0.78;86.85;99261.64;2281718;78;20903;-84
2022/01/27 04:04:01;;;;;;;22.60;14.50;;;;;;;0.75;87.05;99260.19;2281635;78;21297;-83
2022/01/27 04:07:03;;;;;;;22.07;13.37;;;;;;;0.70;87.21;99258.64;2281641;78;20989;-82
2022/01/27 04:10:04;;;;;;;21.20;13.97;;;;;;;0.70;87.33;99256.47;2281812;78;20989;-84
2022/01/27 04:13:04;;;;;;;24.97;15.33;;;;;;;0.69;87.46;99245.70;2281410;78;21365;-83
2022/01/27 04:16:05;;;;;;;21.07;13.83;;;;;;;0.69;87.47;99254.30;2280791;78;20930;-83
2022/01/27 04:19:05;;;;;;;25.70;15.00;;;;;;;0.73;87.52;99252.39;2281726;78;20958;-82
2022/01/27 04:22:05;;;;;;;27.30;15.93;;;;;;;0.78;87.38;99246.22;2281667;78;20910;-83
2022/01/27 04:25:06;;;;;;;28.17;16.73;;;;;;;0.79;87.28;99233.86;2281728;78;20985;-84
2022/01/27 04:28:11;;;;;;;26.53;16.57;;;;;;;0.83;87.37;99234.52;2280129;78;21025;-83
2022/01/27 04:31:10;;;;;;;28.50;16.67;;;;;;;0.85;87.19;99244.48;2279485;77;21081;-83
2022/01/27 04:34:12;;;;;;;34.53;17.67;;;;;;;0.88;87.19;99256.25;2249758;78;21058;-82
2022/01/27 04:37:14;;;;;;;29.97;17.00;;;;;;;0.91;87.25;99246.14;2247587;79;21046;-83
2022/01/27 04:40:16;;;;;;;23.00;14.90;;;;;;;0.91;87.08;99248.72;2247521;79;20956;-83
2022/01/27 04:43:32;;;;;;;29.13;16.87;;;;;;;0.94;87.15;99247.20;2246984;79;21470;-83
2022/01/27 04:49:27;;;;;;;33.97;20.30;;;;;;;0.90;87.14;99236.27;2226925;79;21007;-84
2022/01/27 04:52:32;;;;;;;30.77;18.97;;;;;;;0.92;87.26;99227.35;2246999;79;21395;-82
2022/01/27 04:55:31;;;;;;;31.63;19.07;;;;;;;0.97;87.17;99221.18;2246529;79;20990;-83
2022/01/27 04:58:34;;;;;;;30.10;19.03;;;;;;;0.96;87.09;99226.72;2246689;79;21383;-83
2022/01/27 05:01:43;;;;;;;33.00;19.67;;;;;;;0.95;87.09;99213.38;2246815;78;20932;-83
2022/01/27 05:04:43;;;;;;;38.40;21.63;;;;;;;1.00;87.13;99209.38;2246350;79;20963;-83
2022/01/27 05:07:41;;;;;;;33.23;19.10;;;;;;;1.03;87.16;99209.95;2248245;79;21396;-83
2022/01/27 05:10:42;;;;;;;33.33;20.13;;;;;;;1.05;86.83;99205.78;2248842;79;20940;-83
2022/01/27 05:13:54;;;;;;;37.60;21.43;;;;;;;1.02;86.85;99200.47;2249114;79;20963;-82
2022/01/27 05:16:51;;;;;;;34.90;20.20;;;;;;;1.03;86.92;99191.55;2249103;79;20992;-80
2022/01/27 05:19:51;;;;;;;39.37;21.97;;;;;;;1.04;86.90;99188.19;2249304;78;20944;-82
2022/01/27 05:22:53;;;;;;;40.00;21.60;;;;;;;1.08;86.93;99196.95;2249747;78;20951;-82
2022/01/27 05:25:53;;;;;;;37.00;19.63;;;;;;;1.05;86.70;99188.67;2249676;79;21375;-83
2022/01/27 05:28:54;;;;;;;44.43;23.00;;;;;;;1.00;86.84;99193.95;2248848;78;20995;-82
2022/01/27 05:31:54;;;;;;;39.87;22.97;;;;;;;0.95;87.05;99175.72;2250760;77;20951;-83
2022/01/27 05:34:55;;;;;;;38.27;23.43;;;;;;;0.97;86.96;99180.94;2280238;78;20973;-81
2022/01/27 05:37:55;;;;;;;40.47;22.37;;;;;;;0.96;87.07;99175.31;2280127;78;20980;-82
2022/01/27 05:40:56;;;;;;;38.53;21.60;;;;;;;0.97;87.05;99164.23;2280905;78;20973;-82
2022/01/27 05:46:59;;;;;;;36.53;19.30;;;;;;;0.98;87.08;99154.83;2259575;78;21088;-83
2022/01/27 05:49:59;;;;;;;44.13;24.23;;;;;;;0.99;87.01;99152.75;2278881;78;20957;-81
2022/01/27 05:53:00;;;;;;;46.90;25.90;;;;;;;1.00;87.05;99138.69;2279058;78;20997;-81
2022/01/27 05:56:00;;;;;;;45.43;25.63;;;;;;;1.03;86.95;99154.28;2278040;78;20989;-81
2022/01/27 05:59:01;;;;;;;45.83;25.40;;;;;;;1.03;87.00;99151.71;2277580;78;21013;-82
2022/01/27 06:02:01;;;;;;;41.20;23.23;;;;;;;1.06;87.07;99149.70;2278250;78;20958;-83
2022/01/27 06:05:02;;;;;;;43.37;24.07;;;;;;;1.11;87.09;99137.98;2277871;78;20957;-83
2022/01/27 06:08:03;;;;;;;42.17;22.70;;;;;;;1.17;86.72;99146.91;2278284;78;21515;-83
2022/01/27 06:11:03;;;;;;;37.77;21.73;;;;;;;1.21;86.64;99151.80;2278427;78;21001;-83
2022/01/27 06:14:04;;;;;;;43.07;22.83;;;;;;;1.22;86.29;99153.58;2279314;78;21922;-84
2022/01/27 06:17:04;;;;;;;42.60;22.80;;;;;;;1.20;86.29;99153.50;2279473;78;21875;-83
2022/01/27 06:20:05;;;;;;;37.03;22.00;;;;;;;1.18;86.15;99151.64;2278885;78;20981;-82
2022/01/27 06:23:05;;;;;;;43.40;24.07;;;;;;;1.20;86.15;99148.75;2278733;78;20973;-83
2022/01/27 06:26:06;;;;;;;39.37;21.10;;;;;;;1.20;86.19;99150.92;2277556;78;21017;-82
2022/01/27 06:29:06;;;;;;;34.50;19.53;;;;;;;1.21;85.96;99150.52;2277020;78;21032;-81
2022/01/27 06:32:07;;;;;;;53.17;26.70;;;;;;;1.21;85.94;99150.13;2278264;77;21001;-82
2022/01/27 06:35:07;;;;;;;38.93;21.40;;;;;;;1.23;85.95;99152.38;2288318;78;20960;-82
2022/01/27 06:38:08;;;;;;;36.37;21.33;;;;;;;1.25;85.51;99133.16;2288074;78;20983;-82
2022/01/27 06:41:08;;;;;;;48.27;25.77;;;;;;;1.23;85.46;99146.34;2288523;78;20960;-82
2022/01/27 06:44:08;;;;;;;40.07;23.50;;;;;;;1.23;85.62;99143.38;2288656;78;20967;-81
2022/01/27 06:47:09;;;;;;;41.17;21.23;;;;;;;1.25;85.43;99154.63;2287694;78;20944;-83
2022/01/27 06:50:10;;;;;;;39.40;20.50;;;;;;;1.24;85.47;99152.86;2288365;78;20987;-83
2022/01/27 06:53:10;;;;;;;44.03;23.57;;;;;;;1.26;85.23;99148.67;2287887;78;21010;-81
2022/01/27 06:56:11;;;;;;;43.23;24.13;;;;;;;1.28;85.59;99155.19;2288796;78;21012;-82
2022/01/27 06:59:11;;;;;;;63.17;30.43;;;;;;;1.30;85.23;99155.27;2288311;78;21042;-82
2022/01/27 07:02:12;;;;;;;57.57;26.33;;;;;;;1.30;85.22;99141.13;2289199;78;20967;-82
2022/01/27 07:05:15;;;;;;;44.97;21.10;;;;;;;1.30;84.95;99123.13;2287572;78;21354;-83
2022/01/27 07:08:15;;;;;;;35.13;19.60;;;;;;;1.32;85.17;99124.09;2286588;78;21027;-81
2022/01/27 07:11:15;;;;;;;33.20;19.90;;;;;;;1.35;84.98;99122.95;2288380;78;21939;-81
2022/01/27 07:14:16;;;;;;;28.43;17.37;;;;;;;1.36;84.73;99130.75;2287329;78;20978;-82
2022/01/27 07:17:19;;;;;;;30.67;16.73;;;;;;;1.40;84.71;99133.97;2287547;78;20968;-83
2022/01/27 07:20:18;;;;;;;25.80;16.53;;;;;;;1.43;84.48;99119.98;2287793;77;21058;-82
2022/01/27 07:23:20;;;;;;;29.53;16.30;;;;;;;1.44;84.26;99102.86;2287587;78;21386;-83
2022/01/27 07:26:26;;;;;;;22.10;15.17;;;;;;;1.46;84.26;99090.55;2287774;78;20983;-83
2022/01/27 07:29:27;;;;;;;26.40;14.67;;;;;;;1.47;83.54;99101.73;2287792;78;21003;-80
2022/01/27 07:32:27;;;;;;;24.07;14.40;;;;;;;1.41;83.63;99093.30;2287345;78;20987;-81
2022/01/27 07:35:28;;;;;;;24.53;14.47;;;;;;;1.42;83.78;99085.17;2289156;78;20931;-81
2022/01/27 07:38:28;;;;;;;26.80;16.73;;;;;;;1.41;83.87;99089.44;2288599;78;21002;-82
2022/01/27 07:41:29;;;;;;;27.03;16.80;;;;;;;1.42;83.72;99101.49;2287800;78;21274;-82
2022/01/27 07:44:29;;;;;;;28.73;17.63;;;;;;;1.42;83.51;99090.32;2287249;78;20956;-81
2022/01/27 07:47:30;;;;;;;30.10;17.70;;;;;;;1.40;83.58;99090.23;2287412;78;21018;-80
2022/01/27 07:50:31;;;;;;;27.63;17.80;;;;;;;1.46;83.77;99088.39;2287697;78;20979;-80
2022/01/27 07:53:31;;;;;;;29.13;18.53;;;;;;;1.53;83.21;99079.77;2288779;78;20999;-79
2022/01/27 07:56:32;;;;;;;24.83;16.70;;;;;;;1.61;82.89;99077.59;2288948;78;20971;-79
2022/01/27 07:59:32;;;;;;;30.00;18.33;;;;;;;1.67;82.66;99072.75;2289074;78;21035;-81
2022/01/27 08:02:33;;;;;;;31.93;19.50;;;;;;;1.69;82.67;99078.86;2289279;78;20916;-81
2022/01/27 08:05:33;;;;;;;29.53;18.53;;;;;;;1.69;82.61;99075.39;2289411;78;20947;-82
2022/01/27 08:08:34;;;;;;;32.20;18.93;;;;;;;1.70;82.34;99071.61;2289528;78;20971;-80
2022/01/27 08:11:34;;;;;;;36.50;21.73;;;;;;;1.76;82.63;99064.23;2289197;78;20952;-81
2022/01/27 08:14:35;;;;;;;29.90;20.10;;;;;;;1.83;81.94;99061.16;2289656;78;20912;-82
2022/01/27 08:17:35;;;;;;;39.20;23.13;;;;;;;1.87;82.05;99047.63;2288988;78;20988;-82
2022/01/27 08:20:37;;;;;;;32.90;20.47;;;;;;;1.91;81.86;99050.83;2288752;78;21273;-81
2022/01/27 08:23:40;;;;;;;29.27;18.30;;;;;;;1.89;80.61;99055.02;2288698;78;21019;-81
2022/01/27 08:26:43;;;;;;;33.20;19.40;;;;;;;1.86;81.12;99044.98;2289095;78;21023;-80
2022/01/27 08:29:47;;;;;;;33.43;21.00;;;;;;;1.87;80.77;99042.48;2289338;77;21079;-81
2022/01/27 08:32:50;;;;;;;34.40;21.43;;;;;;;1.88;80.54;99036.92;2288213;78;21027;-81
2022/01/27 08:35:50;;;;;;;27.53;17.90;;;;;;;1.89;81.06;99037.00;2289293;77;21003;-80
2022/01/27 08:38:50;;;;;;;34.90;19.93;;;;;;;1.93;80.45;99029.02;2289101;78;21730;-81
2022/01/27 08:41:51;;;;;;;29.67;18.70;;;;;;;1.98;80.92;99035.68;2287868;78;21010;-81
2022/01/27 08:44:51;;;;;;;26.93;18.13;;;;;;;2.02;80.78;99028.17;2287694;78;21002;-81
2022/01/27 08:47:54;;;;;;;24.73;18.00;;;;;;;2.03;80.27;99022.62;2287319;78;21946;-81
2022/01/27 08:51:01;;;;;;;30.03;19.37;;;;;;;2.05;80.14;99020.59;2287898;78;21446;-81
2022/01/27 08:54:02;;;;;;;30.40;19.40;;;;;;;2.08;79.87;99009.16;2288735;78;21036;-80
2022/01/27 08:57:02;;;;;;;35.20;21.43;;;;;;;2.20;80.05;99011.43;2288964;78;20975;-81
2022/01/27 09:00:03;;;;;;;27.50;18.90;;;;;;;2.27;79.31;99007.05;2289377;78;21066;-80
2022/01/27 09:03:03;;;;;;;31.87;18.27;;;;;;;2.36;79.81;99009.16;2289761;78;20967;-81
2022/01/27 09:06:04;;;;;;;23.60;16.60;;;;;;;2.46;79.05;99001.94;2288991;78;20992;-80
2022/01/27 09:09:05;;;;;;;28.30;17.43;;;;;;;2.46;77.74;99003.22;2289960;78;20999;-80
2022/01/27 09:12:05;;;;;;;30.63;17.23;;;;;;;2.42;77.80;98999.14;2289393;78;20972;-81
2022/01/27 09:15:06;;;;;;;34.50;20.00;;;;;;;2.46;78.03;98996.78;2288667;78;20952;-81
2022/01/27 09:18:07;;;;;;;32.30;18.93;;;;;;;2.62;78.86;98992.36;2288543;77;21058;-80
2022/01/27 09:21:20;;;;;;;32.20;19.63;;;;;;;2.74;78.56;98988.63;2288864;78;20936;-81
2022/01/27 09:24:18;;;;;;;29.93;18.13;;;;;;;2.83;77.84;98980.42;2287202;77;20998;-80
2022/01/27 09:27:18;;;;;;;22.07;15.90;;;;;;;2.87;76.63;98974.59;2287861;78;21027;-79
2022/01/27 09:30:19;;;;;;;25.23;15.50;;;;;;;2.87;76.88;98977.17;2287727;78;21613;-81
2022/01/27 09:33:19;;;;;;;24.67;15.97;;;;;;;2.96;77.20;98962.10;2285808;78;21389;-80
2022/01/27 09:36:20;;;;;;;33.13;17.77;;;;;;;2.95;76.54;98969.36;2278232;78;21287;-80
2022/01/27 09:39:21;;;;;;;22.07;14.47;;;;;;;3.00;76.25;98956.26;2278102;78;21372;-80
2022/01/27 09:42:24;;;;;;;24.10;16.47;;;;;;;3.07;76.08;98943.22;2278330;78;21175;-79
2022/01/27 09:45:24;;;;;;;21.43;14.00;;;;;;;3.13;76.24;98944.36;2278738;78;21034;-80
2022/01/27 09:48:35;;;;;;;27.60;17.43;;;;;;;3.16;74.72;98925.55;2278305;78;20954;-79
2022/01/27 09:51:39;;;;;;;23.43;15.13;;;;;;;3.17;75.61;98928.20;2276979;78;21004;-79
2022/01/27 09:54:32;;;;;;;28.53;17.03;;;;;;;3.34;75.16;98937.93;2275663;78;21052;-80
2022/01/27 09:57:33;;;;;;;25.30;14.73;;;;;;;3.44;75.41;98923.70;2278737;78;20974;-82
2022/01/27 10:00:33;;;;;;;21.63;14.70;;;;;;;3.63;75.10;98917.22;2278810;78;20918;-81
2022/01/27 10:03:34;;;;;;;23.53;14.93;;;;;;;3.79;74.45;98901.92;2279545;78;21012;-79
2022/01/27 10:06:35;;;;;;;21.17;13.70;;;;;;;3.84;74.53;98900.40;2279031;78;20985;-81
2022/01/27 10:09:36;;;;;;;21.03;14.27;;;;;;;3.82;74.12;98895.17;2279368;78;20942;-79
2022/01/27 10:12:39;;;;;;;21.83;13.20;;;;;;;3.71;73.04;98914.53;2278675;78;21021;-78
2022/01/27 10:15:40;;;;;;;22.97;14.63;;;;;;;3.53;72.47;98903.87;2279013;78;20903;-81
2022/01/27 10:18:40;;;;;;;18.57;12.33;;;;;;;3.38;73.99;98889.50;2279056;78;20993;-80
2022/01/27 10:21:41;;;;;;;20.10;13.77;;;;;;;3.31;72.40;98893.06;2280084;78;20981;-81
2022/01/27 10:24:41;;;;;;;22.63;13.50;;;;;;;3.24;73.81;98889.35;2280044;78;21348;-82
2022/01/27 10:28:07;;;;;;;23.87;12.90;;;;;;;3.19;73.15;98880.54;2279784;78;21912;-82
2022/01/27 10:30:50;;;;;;;20.27;13.40;;;;;;;3.16;73.90;98890.33;2275913;77;20974;-80
2022/01/27 10:33:50;;;;;;;22.27;13.47;;;;;;;3.24;73.96;98881.61;2281167;78;20996;-81
2022/01/27 10:36:53;;;;;;;25.70;13.27;;;;;;;3.44;73.40;98893.63;2265992;78;21507;-80
2022/01/27 10:39:53;;;;;;;22.57;14.60;;;;;;;3.39;72.96;98889.09;2289519;78;21016;-82
2022/01/27 10:42:54;;;;;;;24.30;14.30;;;;;;;3.37;73.23;98882.58;2288801;78;20959;-81
2022/01/27 10:45:54;;;;;;;23.93;14.60;;;;;;;3.43;72.66;98880.66;2288860;78;20972;-82
2022/01/27 10:49:06;;;;;;;21.57;13.70;;;;;;;3.43;72.39;98881.95;2288280;78;21322;-82
2022/01/27 10:52:03;;;;;;;25.40;14.73;;;;;;;3.33;72.33;98884.98;2287539;78;21475;-81
2022/01/27 10:55:04;;;;;;;22.30;13.67;;;;;;;3.24;72.41;98882.02;2288080;78;20917;-82
2022/01/27 10:58:04;;;;;;;22.17;13.87;;;;;;;3.36;72.82;98873.08;2287897;78;21062;-81
2022/01/27 11:01:06;;;;;;;25.80;15.17;;;;;;;3.51;72.95;98874.14;2288022;78;20982;-81
2022/01/27 11:04:07;;;;;;;21.87;14.13;;;;;;;3.56;72.85;98868.75;2287849;78;20983;-81
2022/01/27 11:07:08;;;;;;;18.03;11.77;;;;;;;3.61;72.17;98862.48;2287737;78;20944;-82
2022/01/27 11:10:09;;;;;;;22.87;14.10;;;;;;;3.65;71.42;98854.91;2287864;78;21039;-79
2022/01/27 11:16:15;;;;;;;28.47;13.83;;;;;;;3.92;72.51;98844.77;2265250;78;21039;-82
2022/01/27 11:22:43;;;;;;;22.48;13.72;;;;;;;3.89;70.70;98830.45;2266426;78;20971;-81
2022/01/27 11:28:33;;;;;;;23.00;13.87;;;;;;;3.88;69.31;98822.23;2266781;78;21114;-81
2022/01/27 11:31:34;;;;;;;25.67;15.13;;;;;;;3.96;70.60;98807.02;2289258;78;20975;-80
2022/01/27 11:34:34;;;;;;;22.27;13.77;;;;;;;4.06;71.25;98806.53;2283525;78;20993;-82
2022/01/27 11:37:35;;;;;;;23.03;13.43;;;;;;;4.05;70.93;98792.74;2277950;78;21432;-81
2022/01/27 11:40:35;;;;;;;22.37;13.83;;;;;;;3.98;71.07;98805.37;2278929;78;21341;-82
2022/01/27 11:43:38;;;;;;;25.20;14.97;;;;;;;3.93;71.05;98803.03;2279420;78;20945;-82
2022/01/27 11:46:38;;;;;;;22.83;14.23;;;;;;;3.90;70.81;98785.72;2279348;78;21092;-82
2022/01/27 11:49:39;;;;;;;24.63;14.57;;;;;;;3.77;70.67;98786.97;2280278;78;21088;-82
2022/01/27 11:52:39;;;;;;;26.53;15.63;;;;;;;3.66;70.84;98784.39;2279150;78;21387;-81
2022/01/27 11:55:44;;;;;;;30.07;15.77;;;;;;;3.58;71.35;98781.05;2278177;78;21006;-81
2022/01/27 11:58:45;;;;;;;28.73;16.03;;;;;;;3.48;70.81;98775.55;2277932;78;21029;-81
2022/01/27 12:01:45;;;;;;;33.07;18.40;;;;;;;3.42;70.66;98762.78;2278263;78;21420;-81
2022/01/27 12:04:48;;;;;;;35.17;19.07;;;;;;;3.36;71.25;98758.67;2257826;78;21045;-81
2022/01/27 12:07:48;;;;;;;32.33;18.47;;;;;;;3.33;71.25;98755.98;2279066;78;21439;-81
2022/01/27 12:10:58;;;;;;;36.67;20.03;;;;;;;3.35;72.21;98753.05;2279089;78;20989;-81
2022/01/27 12:14:01;;;;;;;36.47;20.60;;;;;;;3.38;72.06;98742.84;2277449;78;21004;-80
2022/01/27 12:16:59;;;;;;;33.60;19.93;;;;;;;3.25;72.07;98744.48;2278887;77;21015;-82
2022/01/27 12:20:00;;;;;;;42.83;20.87;;;;;;;3.19;72.50;98741.25;2279550;78;20997;-83
2022/01/27 12:23:01;;;;;;;39.00;20.50;;;;;;;3.16;72.46;98736.86;2280497;78;20961;-81
2022/01/27 12:26:03;;;;;;;38.83;21.10;;;;;;;3.10;72.15;98734.45;2279133;78;20985;-81
2022/01/27 12:29:04;;;;;;;37.40;20.43;;;;;;;3.06;71.93;98727.00;2278776;78;21112;-81
2022/01/27 12:32:04;;;;;;;41.90;20.90;;;;;;;3.07;72.37;98723.59;2278803;78;20981;-81
2022/01/27 12:35:05;;;;;;;36.90;21.37;;;;;;;3.02;72.13;98708.36;2283341;78;21035;-81
2022/01/27 12:38:05;;;;;;;37.97;22.10;;;;;;;3.02;72.83;98706.19;2288371;78;21003;-81
2022/01/27 12:41:06;;;;;;;40.27;22.10;;;;;;;3.05;72.73;98701.16;2287652;78;20968;-80
2022/01/27 12:44:06;;;;;;;38.43;21.27;;;;;;;3.05;72.99;98698.16;2288189;78;21022;-83
2022/01/27 12:47:07;;;;;;;36.23;22.07;;;;;;;3.12;72.65;98694.12;2288209;78;20948;-78
2022/01/27 12:50:09;;;;;;;39.60;21.23;;;;;;;3.07;72.51;98680.17;2287208;78;20960;-80
2022/01/27 12:56:11;;;;;;;39.60;22.07;;;;;;;3.15;72.73;98664.17;2264327;78;21054;-81
2022/01/27 12:59:12;;;;;;;44.27;24.90;;;;;;;3.24;71.51;98660.17;2288781;78;21457;-82
2022/01/27 13:02:12;;;;;;;48.53;25.30;;;;;;;3.19;72.08;98649.28;2289215;78;21009;-81
2022/01/27 13:05:13;;;;;;;53.87;25.47;;;;;;;3.14;72.23;98644.77;2287698;78;20975;-82
2022/01/27 13:08:13;;;;;;;54.67;25.30;;;;;;;3.14;72.63;98646.05;2288024;78;20940;-81
2022/01/27 13:11:14;;;;;;;47.93;23.03;;;;;;;3.11;72.56;98650.69;2288188;78;21206;-82
2022/01/27 13:14:14;;;;;;;39.00;22.07;;;;;;;3.06;72.06;98653.50;2287962;78;20975;-81
2022/01/27 13:17:16;;;;;;;37.20;20.30;;;;;;;3.00;72.34;98654.56;2287649;78;20964;-81
2022/01/27 13:20:24;;;;;;;34.33;18.80;;;;;;;2.93;72.87;98649.98;2264715;78;21283;-79
2022/01/27 13:23:28;;;;;;;33.47;20.07;;;;;;;2.95;73.16;98643.19;2287321;77;21031;-80
2022/01/27 13:26:26;;;;;;;32.30;19.53;;;;;;;2.94;73.52;98634.11;2287069;77;21043;-80
2022/01/27 13:29:29;;;;;;;36.07;19.87;;;;;;;2.95;73.75;98639.73;2287846;78;21100;-82
2022/01/27 13:32:29;;;;;;;32.60;18.20;;;;;;;2.94;73.97;98623.80;2287650;78;21337;-81
2022/01/27 13:35:30;;;;;;;31.50;18.20;;;;;;;2.92;74.14;98617.29;2283281;78;21492;-81
2022/01/27 13:38:38;;;;;;;34.47;20.70;;;;;;;2.87;74.27;98621.39;2279041;78;21969;-82
2022/01/27 13:41:33;;;;;;;33.63;20.27;;;;;;;2.82;74.65;98617.76;2277743;78;21412;-82
2022/01/27 13:44:33;;;;;;;34.63;19.27;;;;;;;2.87;74.86;98620.11;2278364;78;20977;-81
2022/01/27 13:47:34;;;;;;;29.23;18.57;;;;;;;2.86;74.74;98614.07;2278468;78;20957;-83
2022/01/27 13:50:34;;;;;;;32.00;18.33;;;;;;;2.82;74.90;98610.91;2279700;78;21348;-83
2022/01/27 13:53:35;;;;;;;31.47;19.33;;;;;;;2.79;74.82;98608.63;2278729;78;20950;-82
2022/01/27 13:56:35;;;;;;;31.37;18.57;;;;;;;2.76;75.16;98600.77;2278687;78;20989;-83
2022/01/27 13:59:36;;;;;;;32.67;17.57;;;;;;;2.65;75.35;98598.19;2279342;78;21335;-82
2022/01/27 14:02:38;;;;;;;32.63;19.53;;;;;;;2.61;75.52;98604.05;2280097;78;20966;-83
2022/01/27 14:05:39;;;;;;;37.27;21.27;;;;;;;2.42;76.03;98590.41;2280614;78;21045;-83
2022/01/27 14:08:39;;;;;;;32.17;18.53;;;;;;;2.31;76.66;98590.80;2279641;78;21680;-82
2022/01/27 14:14:42;;;;;;;29.53;16.77;;;;;;;2.00;78.44;98591.25;2258392;78;21044;-83
2022/01/27 14:17:43;;;;;;;29.00;17.43;;;;;;;1.86;79.01;98590.27;2279710;78;20977;-82
2022/01/27 14:20:43;;;;;;;36.73;19.30;;;;;;;1.80;79.32;98586.16;2280096;78;21096;-82
2022/01/27 14:23:58;;;;;;;38.27;20.70;;;;;;;1.74;79.63;98590.17;2279901;78;20969;-83
2022/01/27 14:26:49;;;;;;;38.17;20.90;;;;;;;1.68;80.13;98586.89;2277878;78;21409;-82
2022/01/27 14:29:50;;;;;;;33.20;18.60;;;;;;;1.65;80.32;98588.05;2279607;78;21009;-82
2022/01/27 14:32:50;;;;;;;30.63;17.67;;;;;;;1.65;80.61;98582.03;2280122;78;20989;-83
2022/01/27 14:35:51;;;;;;;29.87;16.37;;;;;;;1.62;81.06;98571.20;2260934;77;20964;-83
2022/01/27 14:38:51;;;;;;;52.80;24.13;;;;;;;1.57;81.23;98571.00;2248744;79;21338;-84
2022/01/27 14:41:53;;;;;;;33.10;18.53;;;;;;;1.55;82.47;98562.75;2248754;79;21816;-83
2022/01/27 14:44:54;;;;;;;33.20;18.33;;;;;;;1.69;81.81;98556.90;2248593;79;21130;-85
2022/01/27 14:48:00;;;;;;;30.70;19.10;;;;;;;1.63;81.59;98562.66;2248540;79;20967;-83
2022/01/27 14:51:00;;;;;;;32.90;18.67;;;;;;;1.58;81.87;98560.31;2247383;78;20975;-83
2022/01/27 14:54:00;;;;;;;33.47;18.47;;;;;;;1.49;82.09;98557.34;2248348;78;20995;-84
2022/01/27 14:57:01;;;;;;;33.63;19.93;;;;;;;1.43;82.17;98550.66;2247247;79;20951;-84
2022/01/27 15:00:01;;;;;;;30.20;19.40;;;;;;;1.39;82.37;98550.93;2246853;79;21038;-83